createdAt,value
2023-01-06T00:01:51.790Z,98118.16
2023-01-06T00:04:20.073Z,98118.75
2023-01-06T00:06:48.557Z,98117.25
2023-01-06T00:09:16.835Z,98129.50
2023-01-06T00:11:45.110Z,98129.19
2023-01-06T00:14:13.389Z,98132.03
2023-01-06T00:16:43.060Z,98128.44
2023-01-06T00:19:12.420Z,98140.84
2023-01-06T00:21:42.580Z,98140.09
2023-01-06T00:24:11.942Z,98140.34
2023-01-06T00:26:41.257Z,98143.06
2023-01-06T00:29:11.706Z,98137.66
2023-01-06T00:31:40.021Z,98142.28
2023-01-06T00:34:12.507Z,98153.16
2023-01-06T00:36:42.359Z,98149.78
2023-01-06T00:39:13.527Z,98147.91
2023-01-06T00:41:59.620Z,98156.09
2023-01-06T00:44:27.991Z,98151.41
2023-01-06T00:46:56.453Z,98148.19
2023-01-06T00:49:26.530Z,98152.63
2023-01-06T00:51:55.134Z,98153.66
2023-01-06T00:54:23.972Z,98158.34
2023-01-06T00:56:54.047Z,98151.59
2023-01-06T00:59:24.108Z,98144.88
2023-01-06T01:01:54.820Z,98151.13
2023-01-06T01:04:24.087Z,98158.44
2023-01-06T01:06:54.985Z,98163.81
2023-01-06T01:09:26.037Z,98166.47
2023-01-06T01:12:11.830Z,98170.56
2023-01-06T01:14:43.616Z,98173.88
2023-01-06T01:17:13.252Z,98170.09
2023-01-06T01:19:41.938Z,98172.88
2023-01-06T01:22:11.593Z,98176.41
2023-01-06T01:24:40.313Z,98173.56
2023-01-06T01:27:09.183Z,98181.22
2023-01-06T01:29:37.549Z,98188.13
2023-01-06T01:32:06.476Z,98185.59
2023-01-06T01:34:34.930Z,98183.06
2023-01-06T01:37:03.965Z,98168.06
2023-01-06T01:39:33.657Z,98174.09
2023-01-06T01:42:01.944Z,98178.44
2023-01-06T01:45:00.437Z,98183.50
2023-01-06T01:47:36.079Z,98184.13
2023-01-06T01:50:10.800Z,98186.13
2023-01-06T01:52:40.229Z,98181.78
2023-01-06T01:55:12.382Z,98185.16
2023-01-06T01:57:44.827Z,98185.16
2023-01-06T02:00:13.752Z,98184.22
2023-01-06T02:02:44.304Z,98180.44
2023-01-06T02:05:17.681Z,98185.34
2023-01-06T02:07:46.869Z,98182.13
2023-01-06T02:10:19.578Z,98178.41
2023-01-06T02:12:50.381Z,98166.16
2023-01-06T02:15:20.681Z,98175.69
2023-01-06T02:18:08.631Z,98174.84
2023-01-06T02:20:53.316Z,98186.13
2023-01-06T02:23:46.082Z,98185.16
2023-01-06T02:26:56.434Z,98179.53
2023-01-06T02:30:12.649Z,98184.22
2023-01-06T02:33:03.104Z,98178.91
2023-01-06T02:35:51.863Z,98175.41
2023-01-06T02:38:33.267Z,98174.50
2023-01-06T02:41:12.437Z,98171.19
2023-01-06T02:43:53.804Z,98178.28
2023-01-06T02:46:33.538Z,98185.25
2023-01-06T02:49:14.196Z,98184.44
2023-01-06T02:51:49.388Z,98173.34
2023-01-06T02:54:29.027Z,98185.50
2023-01-06T02:57:05.450Z,98180.44
2023-01-06T02:59:39.970Z,98192.16
2023-01-06T03:02:11.640Z,98178.22
2023-01-06T03:04:45.054Z,98170.56
2023-01-06T03:07:17.153Z,98171.31
2023-01-06T03:09:46.653Z,98169.84
2023-01-06T03:12:21.651Z,98155.19
2023-01-06T03:14:56.173Z,98147.31
2023-01-06T03:17:26.187Z,98145.53
2023-01-06T03:19:56.240Z,98144.78
2023-01-06T03:22:25.355Z,98136.06
2023-01-06T03:24:54.718Z,98127.53
2023-01-06T03:27:27.957Z,98123.34
2023-01-06T03:29:57.808Z,98124.47
2023-01-06T03:32:32.272Z,98150.53
2023-01-06T03:35:15.748Z,98149.44
2023-01-06T03:37:54.003Z,98162.53
2023-01-06T03:40:33.145Z,98175.25
2023-01-06T03:43:13.090Z,98172.50
2023-01-06T03:45:56.533Z,98144.78
2023-01-06T03:48:50.021Z,98168.28
2023-01-06T03:51:38.209Z,98162.06
2023-01-06T03:54:15.473Z,98174.41
2023-01-06T03:56:48.605Z,98178.94
2023-01-06T03:59:21.912Z,98173.47
2023-01-06T04:01:52.102Z,98166.69
2023-01-06T04:04:22.262Z,98159.38
2023-01-06T04:06:52.036Z,98141.59
2023-01-06T04:09:21.003Z,98143.16
2023-01-06T04:12:07.158Z,98153.56
2023-01-06T04:14:38.807Z,98140.22
2023-01-06T04:17:07.916Z,98162.16
2023-01-06T04:19:36.525Z,98157.22
2023-01-06T04:22:06.230Z,98159.16
2023-01-06T04:24:35.249Z,98152.44
2023-01-06T04:27:03.521Z,98153.59
2023-01-06T04:29:32.179Z,98145.97
2023-01-06T04:32:01.682Z,98153.25
2023-01-06T04:34:30.307Z,98155.78
2023-01-06T04:36:59.644Z,98164.00
2023-01-06T04:39:29.368Z,98165.16
2023-01-06T04:41:57.678Z,98169.63
2023-01-06T04:44:26.175Z,98163.53
2023-01-06T04:46:54.622Z,98170.66
2023-01-06T04:49:22.868Z,98168.31
2023-01-06T04:51:51.091Z,98164.91
2023-01-06T04:54:19.468Z,98170.56
2023-01-06T04:56:49.237Z,98177.63
2023-01-06T04:59:17.522Z,98184.72
2023-01-06T05:01:45.884Z,98203.44
2023-01-06T05:04:14.284Z,98195.69
2023-01-06T05:06:42.539Z,98195.91
2023-01-06T05:09:11.280Z,98213.00
2023-01-06T05:11:43.873Z,98228.06
2023-01-06T05:14:13.691Z,98219.28
2023-01-06T05:16:41.954Z,98221.16
2023-01-06T05:19:10.250Z,98228.38
2023-01-06T05:21:38.760Z,98226.03
2023-01-06T05:24:07.483Z,98235.72
2023-01-06T05:26:35.794Z,98232.16
2023-01-06T05:29:04.403Z,98240.19
2023-01-06T05:31:34.291Z,98237.69
2023-01-06T05:34:02.558Z,98236.13
2023-01-06T05:36:30.897Z,98243.28
2023-01-06T05:38:59.186Z,98241.59
2023-01-06T05:41:27.391Z,98248.78
2023-01-06T05:43:55.759Z,98245.50
2023-01-06T05:46:24.208Z,98244.69
2023-01-06T05:48:54.514Z,98258.06
2023-01-06T05:51:22.763Z,98252.97
2023-01-06T05:53:50.989Z,98244.13
2023-01-06T05:56:21.125Z,98242.78
2023-01-06T05:58:51.321Z,98257.81
2023-01-06T06:01:21.627Z,98258.63
2023-01-06T06:03:50.723Z,98260.31
2023-01-06T06:06:22.139Z,98256.06
2023-01-06T06:08:50.609Z,98265.84
2023-01-06T06:11:20.764Z,98260.75
2023-01-06T06:13:50.465Z,98258.06
2023-01-06T06:16:20.511Z,98263.50
2023-01-06T06:18:51.753Z,98259.16
2023-01-06T06:21:23.368Z,98263.63
2023-01-06T06:23:53.887Z,98262.69
2023-01-06T06:26:22.182Z,98265.16
2023-01-06T06:28:50.599Z,98251.41
2023-01-06T06:31:22.689Z,98259.63
2023-01-06T06:33:52.607Z,98262.13
2023-01-06T06:36:22.366Z,98263.78
2023-01-06T06:38:52.442Z,98262.78
2023-01-06T06:41:21.850Z,98258.56
2023-01-06T06:43:50.981Z,98263.84
2023-01-06T06:46:20.073Z,98263.06
2023-01-06T06:48:49.667Z,98267.28
2023-01-06T06:51:19.870Z,98267.25
2023-01-06T06:53:50.077Z,98268.22
2023-01-06T06:56:19.870Z,98264.31
2023-01-06T06:58:48.507Z,98259.97
2023-01-06T07:01:19.762Z,98262.28
2023-01-06T07:03:49.150Z,98276.94
2023-01-06T07:06:20.686Z,98278.50
2023-01-06T07:08:50.665Z,98283.44
2023-01-06T07:11:19.422Z,98282.28
2023-01-06T07:13:47.858Z,98286.72
2023-01-06T07:16:16.347Z,98284.16
2023-01-06T07:18:44.746Z,98280.91
2023-01-06T07:21:13.068Z,98286.41
2023-01-06T07:23:41.263Z,98281.50
2023-01-06T07:26:11.941Z,98290.41
2023-01-06T07:28:40.306Z,98287.09
2023-01-06T07:31:08.740Z,98289.34
2023-01-06T07:33:37.048Z,98294.16
2023-01-06T07:36:05.914Z,98295.53
2023-01-06T07:38:34.257Z,98287.75
2023-01-06T07:41:02.883Z,98284.81
2023-01-06T07:43:32.583Z,98282.66
2023-01-06T07:46:00.948Z,98277.69
2023-01-06T07:48:29.274Z,98280.50
2023-01-06T07:50:59.579Z,98274.34
2023-01-06T07:53:27.974Z,98274.84
2023-01-06T07:55:57.036Z,98284.88
2023-01-06T07:58:25.632Z,98274.78
2023-01-06T08:00:55.581Z,98273.69
2023-01-06T08:03:24.111Z,98276.03
2023-01-06T08:05:52.518Z,98274.50
2023-01-06T08:08:20.786Z,98272.72
2023-01-06T08:10:49.101Z,98271.09
2023-01-06T08:13:19.629Z,98268.50
2023-01-06T08:15:52.184Z,98262.94
2023-01-06T08:18:21.966Z,98264.91
2023-01-06T08:20:50.256Z,98263.13
2023-01-06T08:23:18.571Z,98258.81
2023-01-06T08:25:46.885Z,98246.81
2023-01-06T08:28:15.519Z,98249.41
2023-01-06T08:30:44.363Z,98253.78
2023-01-06T08:33:13.466Z,98244.91
2023-01-06T08:35:44.182Z,98254.25
2023-01-06T08:38:12.490Z,98243.03
2023-01-06T08:40:40.849Z,98249.44
2023-01-06T08:43:09.197Z,98251.56
2023-01-06T08:45:40.290Z,98260.91
2023-01-06T08:48:08.577Z,98262.88
2023-01-06T08:50:36.776Z,98271.19
2023-01-06T08:53:06.538Z,98265.28
2023-01-06T08:55:35.243Z,98262.47
2023-01-06T08:58:03.526Z,98276.56
2023-01-06T09:00:31.981Z,98264.06
2023-01-06T09:03:00.209Z,98274.31
2023-01-06T09:05:28.626Z,98273.81
2023-01-06T09:07:56.839Z,98264.13
2023-01-06T09:10:26.950Z,98267.47
2023-01-06T09:12:55.277Z,98269.50
2023-01-06T09:15:23.562Z,98277.06
2023-01-06T09:17:51.850Z,98276.56
2023-01-06T09:20:20.275Z,98279.25
2023-01-06T09:22:48.582Z,98281.28
2023-01-06T09:25:18.380Z,98280.94
2023-01-06T09:27:47.975Z,98285.88
2023-01-06T09:30:16.487Z,98281.72
2023-01-06T09:32:45.150Z,98272.47
2023-01-06T09:35:13.482Z,98275.34
2023-01-06T09:37:41.789Z,98253.06
2023-01-06T09:40:16.881Z,98262.75
2023-01-06T09:43:03.988Z,98254.88
2023-01-06T09:45:37.491Z,98248.09
2023-01-06T09:48:08.243Z,98254.69
2023-01-06T09:50:41.510Z,98243.59
2023-01-06T09:53:17.203Z,98239.97
2023-01-06T09:55:48.825Z,98246.47
2023-01-06T09:58:23.062Z,98241.78
2023-01-06T10:00:53.960Z,98230.75
2023-01-06T10:03:24.830Z,98220.72
2023-01-06T10:06:12.123Z,98222.09
2023-01-06T10:08:49.827Z,98213.94
2023-01-06T10:11:30.568Z,98213.91
2023-01-06T10:14:12.004Z,98204.66
2023-01-06T10:16:56.540Z,98201.88
2023-01-06T10:19:31.994Z,98205.75
2023-01-06T10:22:09.442Z,98193.91
2023-01-06T10:24:50.619Z,98192.41
2023-01-06T10:27:27.905Z,98199.09
2023-01-06T10:30:01.453Z,98186.94
2023-01-06T10:32:33.848Z,98180.38
2023-01-06T10:35:03.210Z,98184.09
2023-01-06T10:37:41.084Z,98178.72
2023-01-06T10:40:20.828Z,98177.78
2023-01-06T10:43:00.102Z,98176.16
2023-01-06T10:45:35.663Z,98169.56
2023-01-06T10:48:06.047Z,98173.75
2023-01-06T10:50:35.867Z,98168.19
2023-01-06T10:53:05.170Z,98164.03
2023-01-06T10:55:43.747Z,98164.50
2023-01-06T10:58:19.296Z,98152.84
2023-01-06T11:01:00.780Z,98155.28
2023-01-06T11:03:34.773Z,98151.69
2023-01-06T11:06:07.860Z,98143.09
2023-01-06T11:08:37.911Z,98137.97
2023-01-06T11:11:26.705Z,98137.97
2023-01-06T11:13:58.575Z,98136.28
2023-01-06T11:16:30.789Z,98127.53
2023-01-06T11:19:01.311Z,98127.91
2023-01-06T11:21:40.788Z,98127.38
2023-01-06T11:24:27.817Z,98123.50
2023-01-06T11:26:58.433Z,98118.47
2023-01-06T11:29:30.387Z,98118.38
2023-01-06T11:32:04.928Z,98110.63
2023-01-06T11:34:33.811Z,98119.97
2023-01-06T11:37:02.235Z,98113.16
2023-01-06T11:39:34.461Z,98112.44
2023-01-06T11:42:12.216Z,98104.16
2023-01-06T11:44:42.863Z,98095.22
2023-01-06T11:47:17.444Z,98090.13
2023-01-06T11:49:49.798Z,98097.31
2023-01-06T11:52:24.744Z,98098.06
2023-01-06T11:55:03.094Z,98086.59
2023-01-06T11:57:42.938Z,98090.88
2023-01-06T12:00:29.272Z,98087.84
2023-01-06T12:03:07.683Z,98079.22
2023-01-06T12:05:44.456Z,98077.88
2023-01-06T12:08:18.895Z,98064.00
2023-01-06T12:10:52.656Z,98060.31
2023-01-06T12:13:21.202Z,98054.47
2023-01-06T12:15:58.598Z,98053.28
2023-01-06T12:18:31.479Z,98042.22
2023-01-06T12:21:02.035Z,98041.09
2023-01-06T12:23:35.771Z,98036.72
2023-01-06T12:26:06.609Z,98035.94
2023-01-06T12:28:38.080Z,98038.56
2023-01-06T12:31:11.244Z,98038.56
2023-01-06T12:33:46.867Z,98036.91
2023-01-06T12:36:26.384Z,98043.00
2023-01-06T12:38:57.048Z,98039.38
2023-01-06T12:41:29.751Z,98040.81
2023-01-06T12:44:04.868Z,98026.94
2023-01-06T12:46:41.309Z,98040.34
2023-01-06T12:49:21.235Z,98035.03
2023-01-06T12:51:55.828Z,98026.72
2023-01-06T12:54:29.234Z,98033.16
2023-01-06T12:57:07.337Z,98019.09
2023-01-06T12:59:46.848Z,98023.25
2023-01-06T13:02:26.508Z,98025.97
2023-01-06T13:05:13.013Z,98022.72
2023-01-06T13:07:48.416Z,98013.44
2023-01-06T13:10:27.959Z,98005.06
2023-01-06T13:13:10.842Z,98007.28
2023-01-06T13:15:44.443Z,98003.81
2023-01-06T13:18:18.727Z,98000.88
2023-01-06T13:20:53.232Z,97990.69
2023-01-06T13:23:41.985Z,97994.22
2023-01-06T13:26:27.781Z,97999.47
2023-01-06T13:29:08.607Z,98003.97
2023-01-06T13:31:58.434Z,98002.59
2023-01-06T13:35:00.129Z,98004.94
2023-01-06T13:37:42.442Z,98017.13
2023-01-06T13:40:13.981Z,98010.44
2023-01-06T13:42:50.681Z,98011.06
2023-01-06T13:45:23.446Z,98014.63
2023-01-06T13:47:52.479Z,98029.91
2023-01-06T13:50:22.144Z,98009.75
2023-01-06T13:52:53.022Z,98008.28
2023-01-06T13:55:29.405Z,98007.06
2023-01-06T13:57:59.231Z,98004.59
2023-01-06T14:00:29.850Z,98015.19
2023-01-06T14:03:04.268Z,98004.59
2023-01-06T14:05:53.861Z,97996.31
2023-01-06T14:08:26.994Z,98001.25
2023-01-06T14:11:08.593Z,98001.19
2023-01-06T14:13:41.478Z,98007.00
2023-01-06T14:16:12.309Z,97995.56
2023-01-06T14:18:43.769Z,97994.16
2023-01-06T14:21:23.598Z,97998.56
2023-01-06T14:24:01.850Z,97995.13
2023-01-06T14:26:50.809Z,97980.13
2023-01-06T14:29:56.628Z,97982.09
2023-01-06T14:33:04.730Z,97989.28
2023-01-06T14:35:42.226Z,97990.69
2023-01-06T14:38:23.744Z,97987.69
2023-01-06T14:40:59.003Z,97993.41
2023-01-06T14:43:35.471Z,97990.91
2023-01-06T14:46:11.034Z,97977.72
2023-01-06T14:48:46.426Z,97988.00
2023-01-06T14:51:19.366Z,97982.75
2023-01-06T14:53:57.772Z,97992.34
2023-01-06T14:56:30.308Z,97995.44
2023-01-06T14:59:13.353Z,97998.72
2023-01-06T15:01:44.125Z,97995.13
2023-01-06T15:04:25.793Z,97989.34
2023-01-06T15:07:13.137Z,97988.81
2023-01-06T15:09:41.407Z,97990.75
2023-01-06T15:12:26.147Z,97983.91
2023-01-06T15:14:55.009Z,97978.50
2023-01-06T15:17:23.732Z,97974.28
2023-01-06T15:19:54.309Z,97983.41
2023-01-06T15:22:26.282Z,97975.06
2023-01-06T15:24:56.596Z,97974.69
2023-01-06T15:27:26.988Z,97991.56
2023-01-06T15:29:57.119Z,97984.13
2023-01-06T15:32:27.460Z,97988.94
2023-01-06T15:34:58.450Z,97986.09
2023-01-06T15:37:31.280Z,97986.69
2023-01-06T15:39:59.891Z,97984.09
2023-01-06T15:42:29.776Z,97989.50
2023-01-06T15:45:00.194Z,97989.28
2023-01-06T15:47:33.232Z,97976.50
2023-01-06T15:50:04.378Z,97993.59
2023-01-06T15:52:36.145Z,97987.75
2023-01-06T15:55:07.081Z,97991.88
2023-01-06T15:57:39.799Z,97994.09
2023-01-06T16:00:19.728Z,97991.75
2023-01-06T16:02:49.480Z,98006.09
2023-01-06T16:05:39.215Z,97997.91
2023-01-06T16:08:17.264Z,97998.28
2023-01-06T16:10:46.814Z,98004.09
2023-01-06T16:13:25.720Z,98005.97
2023-01-06T16:15:58.216Z,98011.53
2023-01-06T16:18:29.493Z,98010.28
2023-01-06T16:20:58.778Z,98008.72
2023-01-06T16:23:32.296Z,98014.38
2023-01-06T16:26:10.991Z,98009.97
2023-01-06T16:28:47.058Z,98012.91
2023-01-06T16:31:28.391Z,98015.06
2023-01-06T16:33:57.148Z,98027.56
2023-01-06T16:36:25.587Z,98026.31
2023-01-06T16:38:53.868Z,98035.22
2023-01-06T16:41:22.746Z,98027.50
2023-01-06T16:43:52.528Z,98028.75
2023-01-06T16:46:25.250Z,98025.16
2023-01-06T16:48:58.327Z,98021.91
2023-01-06T16:51:26.662Z,98040.31
2023-01-06T16:53:56.474Z,98035.44
2023-01-06T16:56:25.115Z,98034.41
2023-01-06T16:58:56.978Z,98036.25
2023-01-06T17:01:26.318Z,98034.47
2023-01-06T17:03:57.278Z,98028.53
2023-01-06T17:06:28.465Z,98032.03
2023-01-06T17:08:58.298Z,98036.34
2023-01-06T17:11:29.598Z,98045.09
2023-01-06T17:14:02.040Z,98042.66
2023-01-06T17:16:34.103Z,98034.06
2023-01-06T17:19:07.812Z,98027.19
2023-01-06T17:21:38.319Z,98037.47
2023-01-06T17:24:13.450Z,98032.50
2023-01-06T17:26:42.392Z,98041.16
2023-01-06T17:29:15.773Z,98035.41
2023-01-06T17:31:46.052Z,98036.38
2023-01-06T17:34:17.572Z,98038.03
2023-01-06T17:36:48.150Z,98039.16
2023-01-06T17:39:22.603Z,98033.38
2023-01-06T17:41:53.415Z,98039.41
2023-01-06T17:44:35.199Z,98034.41
2023-01-06T17:47:04.115Z,98036.41
2023-01-06T17:49:37.166Z,98042.00
2023-01-06T17:52:15.986Z,98041.38
2023-01-06T17:55:10.234Z,98042.50
2023-01-06T17:57:41.596Z,98045.38
2023-01-06T18:00:27.383Z,98046.53
2023-01-06T18:03:00.295Z,98051.25
2023-01-06T18:06:05.155Z,98055.72
2023-01-06T18:08:36.312Z,98042.03
2023-01-06T18:11:27.125Z,98049.84
2023-01-06T18:13:55.802Z,98060.34
2023-01-06T18:16:32.048Z,98054.97
2023-01-06T18:19:15.335Z,98058.56
2023-01-06T18:21:45.306Z,98063.94
2023-01-06T18:24:24.861Z,98049.41
2023-01-06T18:26:56.471Z,98059.19
2023-01-06T18:29:26.896Z,98061.78
2023-01-06T18:31:57.599Z,98068.75
2023-01-06T18:34:30.257Z,98060.25
2023-01-06T18:37:00.468Z,98071.75
2023-01-06T18:39:31.200Z,98069.44
2023-01-06T18:42:27.973Z,98072.28
2023-01-06T18:45:24.763Z,98074.28
2023-01-06T18:48:01.406Z,98079.81
2023-01-06T18:50:33.874Z,98071.38
2023-01-06T18:53:05.771Z,98081.19
2023-01-06T18:55:43.764Z,98092.81
2023-01-06T18:58:30.002Z,98093.84
2023-01-06T19:01:01.057Z,98099.34
2023-01-06T19:03:42.940Z,98095.88
2023-01-06T19:06:33.453Z,98092.56
2023-01-06T19:09:04.372Z,98092.69
2023-01-06T19:11:34.787Z,98103.09
2023-01-06T19:14:07.662Z,98086.00
2023-01-06T19:16:38.770Z,98101.59
2023-01-06T19:19:36.010Z,98094.63
2023-01-06T19:22:17.591Z,98093.25
2023-01-06T19:24:51.145Z,98095.25
2023-01-06T19:27:45.900Z,98092.81
2023-01-06T19:30:45.062Z,98093.75
2023-01-06T19:33:37.939Z,98096.50
2023-01-06T19:36:41.295Z,98094.63
2023-01-06T19:39:25.956Z,98092.22
2023-01-06T19:41:56.498Z,98100.16
2023-01-06T19:44:32.251Z,98097.63
2023-01-06T19:47:03.020Z,98102.94
2023-01-06T19:49:39.774Z,98116.09
2023-01-06T19:52:28.457Z,98120.59
2023-01-06T19:55:02.018Z,98113.72
2023-01-06T19:57:37.244Z,98118.13
2023-01-06T20:00:20.614Z,98122.59
2023-01-06T20:02:51.111Z,98113.63
2023-01-06T20:05:20.100Z,98125.84
2023-01-06T20:07:50.228Z,98128.59
2023-01-06T20:10:18.550Z,98118.34
2023-01-06T20:12:47.215Z,98106.31
2023-01-06T20:15:16.400Z,98128.00
2023-01-06T20:17:45.520Z,98133.03
2023-01-06T20:20:14.022Z,98122.13
2023-01-06T20:22:44.907Z,98122.78
2023-01-06T20:25:15.430Z,98110.56
2023-01-06T20:27:44.593Z,98120.59
2023-01-06T20:30:13.765Z,98113.94
2023-01-06T20:32:45.375Z,98116.38
2023-01-06T20:35:15.721Z,98124.28
2023-01-06T20:37:44.589Z,98123.13
2023-01-06T20:40:14.979Z,98122.69
2023-01-06T20:42:43.331Z,98117.56
2023-01-06T20:45:13.418Z,98117.03
2023-01-06T20:47:42.026Z,98116.47
2023-01-06T20:50:14.162Z,98115.06
2023-01-06T20:52:42.783Z,98114.75
2023-01-06T20:55:11.659Z,98117.78
2023-01-06T20:57:41.630Z,98127.38
2023-01-06T21:00:12.659Z,98127.94
2023-01-06T21:02:41.259Z,98134.59
2023-01-06T21:05:10.845Z,98122.88
2023-01-06T21:07:39.491Z,98142.25
2023-01-06T21:10:09.014Z,98139.06
2023-01-06T21:12:37.384Z,98147.63
2023-01-06T21:15:09.105Z,98136.69
2023-01-06T21:17:38.385Z,98138.97
2023-01-06T21:20:08.116Z,98133.94
2023-01-06T21:22:36.531Z,98137.19
2023-01-06T21:25:05.466Z,98130.38
2023-01-06T21:27:33.866Z,98143.66
2023-01-06T21:30:02.371Z,98150.94
2023-01-06T21:32:32.669Z,98149.78
2023-01-06T21:35:01.201Z,98146.34
2023-01-06T21:37:29.754Z,98153.75
2023-01-06T21:39:58.387Z,98155.59
2023-01-06T21:42:44.450Z,98152.78
2023-01-06T21:45:13.106Z,98154.53
2023-01-06T21:47:42.810Z,98152.16
2023-01-06T21:50:11.664Z,98158.50
2023-01-06T21:52:40.129Z,98153.31
2023-01-06T21:55:09.219Z,98147.38
2023-01-06T21:57:38.896Z,98145.56
2023-01-06T22:00:09.994Z,98146.47
2023-01-06T22:02:43.221Z,98143.94
2023-01-06T22:05:12.467Z,98151.13
2023-01-06T22:07:45.622Z,98146.88
2023-01-06T22:10:17.068Z,98154.66
2023-01-06T22:12:49.135Z,98154.66
2023-01-06T22:15:17.883Z,98156.44
2023-01-06T22:17:47.779Z,98141.19
2023-01-06T22:20:17.747Z,98149.91
2023-01-06T22:22:46.775Z,98150.91
2023-01-06T22:25:15.150Z,98150.81
2023-01-06T22:27:46.380Z,98142.34
2023-01-06T22:30:15.399Z,98149.09
2023-01-06T22:32:44.297Z,98156.88
2023-01-06T22:35:16.398Z,98155.19
2023-01-06T22:37:45.271Z,98158.88
2023-01-06T22:40:16.117Z,98160.56
2023-01-06T22:42:45.335Z,98151.84
2023-01-06T22:45:14.295Z,98159.53
2023-01-06T22:47:43.467Z,98160.50
2023-01-06T22:50:13.658Z,98157.09
2023-01-06T22:52:42.129Z,98166.03
2023-01-06T22:55:10.909Z,98167.78
2023-01-06T22:57:39.384Z,98174.84
2023-01-06T23:00:13.243Z,98163.66
2023-01-06T23:02:41.818Z,98174.00
2023-01-06T23:05:11.127Z,98164.38
2023-01-06T23:07:42.168Z,98160.34
2023-01-06T23:10:13.773Z,98162.97
2023-01-06T23:12:43.202Z,98156.88
2023-01-06T23:15:12.424Z,98162.09
2023-01-06T23:17:40.787Z,98156.13
2023-01-06T23:20:10.031Z,98156.97
2023-01-06T23:22:38.486Z,98154.38
2023-01-06T23:25:09.348Z,98151.59
2023-01-06T23:27:38.488Z,98155.03
2023-01-06T23:30:08.027Z,98136.06
2023-01-06T23:32:36.534Z,98147.28
2023-01-06T23:35:05.338Z,98155.88
2023-01-06T23:37:44.111Z,98148.09
2023-01-06T23:40:14.512Z,98154.38
2023-01-06T23:42:48.285Z,98157.88
2023-01-06T23:45:17.129Z,98158.88
2023-01-06T23:47:45.383Z,98162.38
2023-01-06T23:50:14.453Z,98151.13
2023-01-06T23:52:42.709Z,98156.34
2023-01-06T23:55:14.104Z,98168.66
2023-01-06T23:57:42.823Z,98164.53
